Time;durP1;ratioP1;P1;durP2;ratioP2;P2;SDS_P1;SDS_P2;PMS_P1;PMS_P2;Temp;Humidity;BMP_temperature;BMP_pressure;BME280_temperature;BME280_humidity;BME280_pressure;Samples;Min_cycle;Max_cycle;Signal;HPM_P1;HPM_P2
2021/06/01 00:02:19;;;;;;;2.60;1.70;;;;;;;;;;5111849;28;20226;-67
2021/06/01 00:04:46;;;;;;;2.63;2.03;;;;;;;;;;5111069;28;20204;-68
2021/06/01 00:07:12;;;;;;;2.83;1.97;;;;;;;;;;5111807;28;20294;-68
2021/06/01 00:09:39;;;;;;;1.87;1.63;;;;;;;;;;5111142;28;20232;-67
2021/06/01 00:12:05;;;;;;;3.30;2.40;;;;;;;;;;5111945;28;20293;-68
2021/06/01 00:14:32;;;;;;;2.87;1.80;;;;;;;;;;5110700;28;20235;-68
2021/06/01 00:16:58;;;;;;;2.73;1.97;;;;;;;;;;5111919;28;20670;-68
2021/06/01 00:19:25;;;;;;;4.17;2.30;;;;;;;;;;5111633;28;20235;-68
2021/06/01 00:21:51;;;;;;;2.43;1.63;;;;;;;;;;5111199;28;20204;-71
2021/06/01 00:24:17;;;;;;;9.40;2.33;;;;;;;;;;5111030;28;20203;-68
2021/06/01 00:26:44;;;;;;;3.53;2.30;;;;;;;;;;5111215;28;20204;-68
2021/06/01 00:29:11;;;;;;;1.17;0.97;;;;;;;;;;5111200;28;20235;-68
2021/06/01 00:31:37;;;;;;;3.57;1.97;;;;;;;;;;5111452;28;20196;-68
2021/06/01 00:34:05;;;;;;;3.00;2.07;;;;;;;;;;5111440;28;20200;-68
2021/06/01 00:36:31;;;;;;;2.63;1.40;;;;;;;;;;5110243;28;20287;-70
2021/06/01 00:38:58;;;;;;;3.07;1.50;;;;;;;;;;5110779;28;20234;-68
2021/06/01 00:41:24;;;;;;;2.50;1.60;;;;;;;;;;5102646;28;20755;-69
2021/06/01 00:43:50;;;;;;;10.67;2.57;;;;;;;;;;5087659;28;20205;-69
2021/06/01 00:46:17;;;;;;;2.13;1.40;;;;;;;;;;5069583;28;20284;-68
2021/06/01 00:48:43;;;;;;;1.50;1.33;;;;;;;;;;5070026;28;20236;-68
2021/06/01 00:51:10;;;;;;;3.23;1.60;;;;;;;;;;5100770;28;20192;-68
2021/06/01 00:53:37;;;;;;;1.70;1.17;;;;;;;;;;5110654;28;20901;-69
2021/06/01 00:56:04;;;;;;;3.07;2.07;;;;;;;;;;5110102;28;20211;-68
2021/06/01 00:58:30;;;;;;;1.20;0.90;;;;;;;;;;5110740;28;20232;-68
2021/06/01 01:34:07;;;;;;;1.30;1.20;;;;;;;;;;5128218;27;20364;-69
2021/06/01 01:36:35;;;;;;;2.27;1.73;;;;;;;;;;5127540;27;20207;-68
2021/06/01 01:39:02;;;;;;;2.70;1.60;;;;;;;;;;5127929;27;20223;-69
2021/06/01 01:41:29;;;;;;;1.20;1.10;;;;;;;;;;5127912;27;20211;-70
2021/06/01 01:43:56;;;;;;;1.47;1.27;;;;;;;;;;5124647;28;20203;-70
2021/06/01 01:49:09;;;;;;;1.63;1.33;;;;;;;;;;5107203;28;20845;-69
2021/06/01 01:51:37;;;;;;;3.33;1.43;;;;;;;;;;5145342;27;20208;-69
2021/06/01 01:54:07;;;;;;;4.20;1.60;;;;;;;;;;5148420;27;20350;-68
2021/06/01 01:56:37;;;;;;;1.30;1.13;;;;;;;;;;5147687;27;20285;-69
2021/06/01 01:59:08;;;;;;;2.13;1.07;;;;;;;;;;5148125;27;20222;-69
2021/06/01 02:01:35;;;;;;;2.60;1.23;;;;;;;;;;5148021;27;20205;-69
2021/06/01 02:04:02;;;;;;;1.17;1.07;;;;;;;;;;5148103;27;20276;-70
2021/06/01 02:06:29;;;;;;;1.53;1.23;;;;;;;;;;5147152;27;20203;-69
2021/06/01 02:08:55;;;;;;;2.33;1.43;;;;;;;;;;5148025;27;20218;-69
2021/06/01 02:11:22;;;;;;;1.30;1.20;;;;;;;;;;5146810;27;20199;-69
2021/06/01 02:13:50;;;;;;;1.70;1.37;;;;;;;;;;5147728;27;20703;-69
2021/06/01 02:16:17;;;;;;;2.10;1.50;;;;;;;;;;5146985;27;20290;-69
2021/06/01 02:18:44;;;;;;;1.40;1.30;;;;;;;;;;5147379;27;20222;-69
2021/06/01 02:21:20;;;;;;;1.27;1.07;;;;;;;;;;5147777;27;20203;-69
2021/06/01 02:23:50;;;;;;;1.50;1.20;;;;;;;;;;5136439;27;20290;-69
2021/06/01 02:26:24;;;;;;;1.77;1.20;;;;;;;;;;5126328;28;20296;-69
2021/06/01 02:28:53;;;;;;;1.07;0.97;;;;;;;;;;5126843;28;20703;-69
2021/06/01 02:31:28;;;;;;;2.00;1.10;;;;;;;;;;5126682;27;20851;-69
2021/06/01 02:33:55;;;;;;;3.00;1.57;;;;;;;;;;5126697;28;20223;-69
2021/06/01 02:36:22;;;;;;;3.17;1.87;;;;;;;;;;5126438;27;20204;-69
2021/06/01 02:38:49;;;;;;;1.10;1.00;;;;;;;;;;5126757;27;20258;-69
2021/06/01 02:41:16;;;;;;;2.17;1.30;;;;;;;;;;5126658;27;20581;-69
2021/06/01 02:43:43;;;;;;;1.30;1.20;;;;;;;;;;5121251;28;20283;-70
2021/06/01 02:46:09;;;;;;;2.43;1.10;;;;;;;;;;5092126;28;20208;-69
2021/06/01 02:48:36;;;;;;;1.17;1.03;;;;;;;;;;5092642;28;20224;-69
2021/06/01 02:51:17;;;;;;;3.13;1.67;;;;;;;;;;5121014;27;20278;-69
2021/06/01 02:53:45;;;;;;;1.60;1.50;;;;;;;;;;5132014;27;20221;-69
2021/06/01 02:56:12;;;;;;;2.00;0.80;;;;;;;;;;5132520;27;20203;-69
2021/06/01 02:58:40;;;;;;;1.40;1.20;;;;;;;;;;5133126;27;20229;-69
2021/06/01 03:01:06;;;;;;;1.33;1.13;;;;;;;;;;5127297;27;20207;-69
2021/06/01 03:03:33;;;;;;;1.67;1.40;;;;;;;;;;5112818;28;20207;-69
2021/06/01 03:05:59;;;;;;;3.13;1.60;;;;;;;;;;5111904;28;20214;-69
2021/06/01 03:08:30;;;;;;;1.17;1.10;;;;;;;;;;5112474;28;20223;-69
2021/06/01 03:10:58;;;;;;;2.50;1.13;;;;;;;;;;5112412;28;20258;-69
2021/06/01 03:13:24;;;;;;;3.13;1.40;;;;;;;;;;5112689;28;20223;-69
2021/06/01 03:15:51;;;;;;;1.43;1.10;;;;;;;;;;5111870;28;20204;-69
2021/06/01 03:18:18;;;;;;;1.53;1.30;;;;;;;;;;5112572;28;20199;-69
2021/06/01 03:20:45;;;;;;;2.00;1.80;;;;;;;;;;5112589;28;20286;-69
2021/06/01 03:23:12;;;;;;;1.17;1.00;;;;;;;;;;5112332;28;20283;-69
2021/06/01 03:25:38;;;;;;;2.23;1.67;;;;;;;;;;5111577;28;20251;-69
2021/06/01 03:28:04;;;;;;;1.27;0.93;;;;;;;;;;5112119;28;20292;-69
2021/06/01 03:30:32;;;;;;;2.80;1.97;;;;;;;;;;5112206;28;20232;-69
2021/06/01 03:32:59;;;;;;;2.23;1.43;;;;;;;;;;5112006;28;20227;-69
2021/06/01 03:35:26;;;;;;;1.33;1.20;;;;;;;;;;5111348;28;20282;-69
2021/06/01 03:37:53;;;;;;;1.57;1.27;;;;;;;;;;5111736;28;20222;-69
2021/06/01 03:40:20;;;;;;;2.10;1.43;;;;;;;;;;5111661;28;20704;-69
2021/06/01 03:42:46;;;;;;;1.57;1.23;;;;;;;;;;5111795;28;20207;-69
2021/06/01 03:45:13;;;;;;;1.20;1.03;;;;;;;;;;5096753;28;20203;-69
2021/06/01 03:47:40;;;;;;;2.23;1.63;;;;;;;;;;5091331;28;20204;-69
2021/06/01 03:50:07;;;;;;;2.03;1.47;;;;;;;;;;5119652;27;20638;-70
2021/06/01 03:52:33;;;;;;;3.57;1.47;;;;;;;;;;5131837;27;20210;-69
2021/06/01 03:55:00;;;;;;;2.20;1.40;;;;;;;;;;5130992;27;20235;-70
2021/06/01 03:57:26;;;;;;;2.03;1.20;;;;;;;;;;5130475;27;20205;-69
2021/06/01 03:59:54;;;;;;;1.60;1.23;;;;;;;;;;5130866;27;20596;-69
2021/06/01 04:02:21;;;;;;;1.47;1.00;;;;;;;;;;5132528;27;20204;-69
2021/06/01 04:04:49;;;;;;;1.90;1.30;;;;;;;;;;5131728;27;20199;-69
2021/06/01 04:07:16;;;;;;;5.97;1.60;;;;;;;;;;5131857;27;20210;-69
2021/06/01 04:09:43;;;;;;;12.60;1.40;;;;;;;;;;5132086;27;20306;-69
2021/06/01 04:12:10;;;;;;;5.47;2.10;;;;;;;;;;5126059;27;20223;-69
2021/06/01 04:14:38;;;;;;;2.37;1.77;;;;;;;;;;5110447;28;20834;-69
2021/06/01 04:17:04;;;;;;;2.80;1.60;;;;;;;;;;5111207;28;20204;-69
2021/06/01 04:19:32;;;;;;;1.43;1.17;;;;;;;;;;5110846;28;20228;-69
2021/06/01 04:21:59;;;;;;;1.80;1.53;;;;;;;;;;5107713;28;20204;-69
2021/06/01 04:24:27;;;;;;;1.30;1.20;;;;;;;;;;5099112;28;20197;-69
2021/06/01 04:26:55;;;;;;;2.17;1.40;;;;;;;;;;5100176;28;20191;-68
2021/06/01 04:29:21;;;;;;;1.90;1.70;;;;;;;;;;5101356;28;20299;-69
2021/06/01 04:31:48;;;;;;;1.57;1.20;;;;;;;;;;5098412;28;20211;-68
2021/06/01 04:34:15;;;;;;;1.63;1.00;;;;;;;;;;5099295;28;20299;-69
2021/06/01 04:36:41;;;;;;;2.67;1.90;;;;;;;;;;5100256;28;20200;-69
2021/06/01 04:39:07;;;;;;;1.23;1.13;;;;;;;;;;5099651;28;20257;-69
2021/06/01 04:41:34;;;;;;;1.97;1.70;;;;;;;;;;5099618;28;20196;-69
2021/06/01 04:44:00;;;;;;;2.27;1.50;;;;;;;;;;5099201;28;20197;-69
2021/06/01 04:46:27;;;;;;;1.43;1.33;;;;;;;;;;5099968;28;20663;-69
2021/06/01 04:48:53;;;;;;;2.17;1.47;;;;;;;;;;5099003;28;20216;-69
2021/06/01 04:51:20;;;;;;;1.70;1.57;;;;;;;;;;5104380;28;20219;-70
2021/06/01 04:53:50;;;;;;;2.30;1.40;;;;;;;;;;5099520;28;20231;-69
2021/06/01 04:56:17;;;;;;;1.47;1.33;;;;;;;;;;5098867;28;20279;-69
2021/06/01 04:58:43;;;;;;;2.67;1.60;;;;;;;;;;5098973;28;20216;-69
2021/06/01 05:01:10;;;;;;;2.30;1.63;;;;;;;;;;5101522;28;20203;-69
2021/06/01 05:03:37;;;;;;;1.93;1.40;;;;;;;;;;5099406;28;20258;-69
2021/06/01 05:06:04;;;;;;;1.90;1.60;;;;;;;;;;5091997;28;20200;-69
2021/06/01 05:08:30;;;;;;;2.20;1.50;;;;;;;;;;5089648;28;20246;-69
2021/06/01 05:10:56;;;;;;;2.07;1.50;;;;;;;;;;5089833;28;20211;-69
2021/06/01 05:13:23;;;;;;;5.70;2.00;;;;;;;;;;5089543;28;20220;-69
2021/06/01 05:15:49;;;;;;;2.60;1.50;;;;;;;;;;5088671;28;20291;-69
2021/06/01 05:18:16;;;;;;;2.65;1.88;;;;;;;;;;5089603;28;20211;-70
2021/06/01 05:21:01;;;;;;;1.58;1.48;;;;;;;;;;5094080;28;20669;-67
2021/06/01 05:23:27;;;;;;;2.28;1.83;;;;;;;;;;5103958;28;20195;-69
2021/06/01 05:25:54;;;;;;;3.38;1.77;;;;;;;;;;5110195;28;20204;-69
2021/06/01 05:28:21;;;;;;;3.33;2.20;;;;;;;;;;5110585;28;20708;-69
2021/06/01 05:30:59;;;;;;;1.73;1.30;;;;;;;;;;5111223;28;20206;-69
2021/06/01 05:33:32;;;;;;;3.88;1.60;;;;;;;;;;5110823;28;20272;-67
2021/06/01 05:36:00;;;;;;;1.90;1.70;;;;;;;;;;5110442;28;20691;-67
2021/06/01 05:38:28;;;;;;;2.22;1.80;;;;;;;;;;5110371;28;20226;-67
2021/06/01 05:40:54;;;;;;;4.55;1.58;;;;;;;;;;5110719;28;20199;-67
2021/06/01 05:43:21;;;;;;;1.77;1.60;;;;;;;;;;5111130;28;20231;-67
2021/06/01 05:45:48;;;;;;;1.63;1.50;;;;;;;;;;5091564;28;20204;-68
2021/06/01 05:48:14;;;;;;;2.72;1.75;;;;;;;;;;5089412;28;20367;-67
2021/06/01 05:50:41;;;;;;;1.40;1.30;;;;;;;;;;5112145;28;20358;-67
2021/06/01 05:53:13;;;;;;;2.88;1.40;;;;;;;;;;5130208;28;20195;-69
2021/06/01 05:55:39;;;;;;;1.90;1.63;;;;;;;;;;5130201;27;20206;-67
2021/06/01 05:58:06;;;;;;;1.40;1.30;;;;;;;;;;5130766;28;20202;-67
2021/06/01 06:00:32;;;;;;;1.45;1.10;;;;;;;;;;5129245;28;20210;-67
2021/06/01 06:03:01;;;;;;;1.58;1.35;;;;;;;;;;5130196;28;20203;-66
2021/06/01 06:05:27;;;;;;;5.43;1.52;;;;;;;;;;5130250;27;20674;-67
2021/06/01 06:07:54;;;;;;;1.45;1.35;;;;;;;;;;5110300;27;20204;-67
2021/06/01 06:10:20;;;;;;;1.50;1.23;;;;;;;;;;5109261;28;20220;-68
2021/06/01 06:12:46;;;;;;;2.88;1.83;;;;;;;;;;5109614;28;20204;-68
2021/06/01 06:15:15;;;;;;;2.20;1.52;;;;;;;;;;5109273;28;20661;-67
2021/06/01 06:17:43;;;;;;;1.52;1.25;;;;;;;;;;5103996;28;20651;-68
2021/06/01 06:20:10;;;;;;;2.05;1.08;;;;;;;;;;5112331;28;20220;-67
2021/06/01 06:22:37;;;;;;;1.20;1.10;;;;;;;;;;5113743;28;20314;-67
2021/06/01 06:25:05;;;;;;;1.80;1.23;;;;;;;;;;5100416;27;20231;-66
2021/06/01 06:27:32;;;;;;;1.33;1.23;;;;;;;;;;5092047;28;20600;-68
2021/06/01 06:29:58;;;;;;;1.30;1.20;;;;;;;;;;5092963;28;20730;-68
2021/06/01 06:32:24;;;;;;;1.92;1.10;;;;;;;;;;5109949;28;20203;-68
2021/06/01 06:34:52;;;;;;;2.08;1.42;;;;;;;;;;5098851;27;20209;-69
2021/06/01 06:37:19;;;;;;;1.35;1.23;;;;;;;;;;5100739;28;20195;-69
2021/06/01 06:39:45;;;;;;;0.95;0.95;;;;;;;;;;5112836;28;20223;-68
2021/06/01 06:42:12;;;;;;;2.38;1.10;;;;;;;;;;5112121;28;20216;-68
2021/06/01 06:44:41;;;;;;;1.38;1.27;;;;;;;;;;5112077;28;20937;-68
2021/06/01 06:49:38;;;;;;;1.77;1.10;;;;;;;;;;5114588;27;20320;-69
2021/06/01 06:52:08;;;;;;;1.13;1.00;;;;;;;;;;5125841;27;20210;-69
2021/06/01 06:54:34;;;;;;;3.50;2.08;;;;;;;;;;5112079;28;20203;-71
2021/06/01 06:57:01;;;;;;;1.50;1.13;;;;;;;;;;5112215;28;20204;-69
2021/06/01 06:59:27;;;;;;;2.13;1.45;;;;;;;;;;5112279;28;20567;-73
2021/06/01 07:01:53;;;;;;;1.23;0.85;;;;;;;;;;5111309;28;20242;-68
2021/06/01 07:04:20;;;;;;;1.88;1.02;;;;;;;;;;5110122;27;20234;-68
2021/06/01 07:06:48;;;;;;;1.15;1.05;;;;;;;;;;5092152;28;20196;-68
2021/06/01 07:09:15;;;;;;;0.95;0.95;;;;;;;;;;5092125;28;20224;-67
2021/06/01 07:11:42;;;;;;;1.15;1.05;;;;;;;;;;5092986;28;20258;-68
2021/06/01 07:14:08;;;;;;;1.02;0.93;;;;;;;;;;5105872;28;20203;-68
2021/06/01 07:16:35;;;;;;;1.55;1.30;;;;;;;;;;5098682;28;20226;-67
2021/06/01 07:19:02;;;;;;;1.42;1.20;;;;;;;;;;5095141;28;20302;-67
2021/06/01 07:21:28;;;;;;;1.30;1.20;;;;;;;;;;5099988;27;20199;-69
2021/06/01 07:23:54;;;;;;;1.45;1.00;;;;;;;;;;5107223;28;20695;-68
2021/06/01 07:26:21;;;;;;;1.70;1.33;;;;;;;;;;5104367;28;20803;-68
2021/06/01 07:28:47;;;;;;;0.82;0.82;;;;;;;;;;5106090;28;20250;-70
2021/06/01 07:31:15;;;;;;;0.77;0.77;;;;;;;;;;5105329;28;20207;-67
2021/06/01 07:33:43;;;;;;;1.83;1.23;;;;;;;;;;5106221;28;20230;-70
2021/06/01 07:36:10;;;;;;;1.17;0.98;;;;;;;;;;5104886;28;20290;-69
2021/06/01 07:38:37;;;;;;;1.55;1.10;;;;;;;;;;5106220;28;20233;-71
2021/06/01 07:41:03;;;;;;;1.08;1.00;;;;;;;;;;5105482;28;20203;-68
2021/06/01 07:43:30;;;;;;;1.10;0.80;;;;;;;;;;5105885;28;20839;-68
2021/06/01 07:45:57;;;;;;;1.30;0.98;;;;;;;;;;5085014;28;20242;-71
2021/06/01 07:48:24;;;;;;;1.40;1.23;;;;;;;;;;5085988;28;20234;-69
2021/06/01 07:50:51;;;;;;;0.93;0.77;;;;;;;;;;5110894;27;20269;-68
2021/06/01 07:53:17;;;;;;;0.88;0.88;;;;;;;;;;5127008;27;20760;-70
2021/06/01 07:55:43;;;;;;;0.98;0.80;;;;;;;;;;5125385;27;20202;-70
2021/06/01 07:58:10;;;;;;;0.98;0.88;;;;;;;;;;5126270;27;20238;-69
2021/06/01 08:00:37;;;;;;;0.80;0.70;;;;;;;;;;5127098;27;20220;-68
2021/06/01 08:03:03;;;;;;;1.52;1.08;;;;;;;;;;5125051;27;20853;-69
2021/06/01 08:05:30;;;;;;;1.23;0.85;;;;;;;;;;5125815;27;20232;-67
2021/06/01 08:07:57;;;;;;;0.93;0.85;;;;;;;;;;5126586;27;20198;-68
2021/06/01 08:10:24;;;;;;;1.55;0.75;;;;;;;;;;5126222;27;20629;-68
2021/06/01 08:12:52;;;;;;;0.68;0.68;;;;;;;;;;5126837;27;20201;-68
2021/06/01 08:15:21;;;;;;;1.15;0.75;;;;;;;;;;5100188;27;20227;-69
2021/06/01 08:17:50;;;;;;;0.80;0.80;;;;;;;;;;5084907;28;20224;-70
2021/06/01 08:20:28;;;;;;;1.42;1.00;;;;;;;;;;5096341;28;20211;-70
2021/06/01 08:22:54;;;;;;;1.00;0.90;;;;;;;;;;5105628;28;20207;-70
2021/06/01 08:25:21;;;;;;;0.82;0.75;;;;;;;;;;5104543;28;20293;-70
2021/06/01 08:27:48;;;;;;;1.20;1.10;;;;;;;;;;5104326;28;20623;-70
2021/06/01 08:30:15;;;;;;;0.73;0.73;;;;;;;;;;5105157;28;20223;-70
2021/06/01 08:32:41;;;;;;;0.85;0.82;;;;;;;;;;5105899;28;20203;-69
2021/06/01 08:35:08;;;;;;;1.35;1.08;;;;;;;;;;5103980;28;20300;-70
2021/06/01 08:37:34;;;;;;;1.30;1.00;;;;;;;;;;5104621;28;20203;-70
2021/06/01 08:40:01;;;;;;;0.75;0.75;;;;;;;;;;5105331;28;20238;-70
2021/06/01 08:42:28;;;;;;;0.70;0.70;;;;;;;;;;5104215;28;20203;-71
2021/06/01 08:44:54;;;;;;;0.93;0.70;;;;;;;;;;5092747;28;20589;-70
2021/06/01 08:47:21;;;;;;;1.38;0.70;;;;;;;;;;5085279;28;20232;-71
2021/06/01 08:49:48;;;;;;;4.05;1.38;;;;;;;;;;5091585;27;20302;-69
2021/06/01 08:52:16;;;;;;;0.82;0.63;;;;;;;;;;5125236;27;20198;-69
2021/06/01 08:54:43;;;;;;;0.95;0.90;;;;;;;;;;5124550;27;20703;-69
2021/06/01 08:57:10;;;;;;;1.00;0.80;;;;;;;;;;5108937;27;20199;-69
2021/06/01 08:59:36;;;;;;;1.00;0.90;;;;;;;;;;5102835;28;20246;-69
2021/06/01 09:02:03;;;;;;;0.80;0.80;;;;;;;;;;5106134;28;20233;-70
2021/06/01 09:04:42;;;;;;;0.82;0.60;;;;;;;;;;5103735;28;20219;-69
2021/06/01 09:07:09;;;;;;;0.57;0.57;;;;;;;;;;5104074;28;20298;-69
2021/06/01 09:09:58;;;;;;;3.42;1.15;;;;;;;;;;5098643;28;20601;-69
2021/06/01 09:15:22;;;;;;;1.65;0.88;;;;;;;;;;5083236;28;20231;-70
2021/06/01 09:23:02;;;;;;;0.73;0.70;;;;;;;;;;5103948;28;20199;-70
2021/06/01 09:25:59;;;;;;;0.95;0.50;;;;;;;;;;5101719;28;20312;-72
2021/06/01 09:28:18;;;;;;;0.68;0.65;;;;;;;;;;5103499;28;20291;-71
2021/06/01 09:31:01;;;;;;;1.00;0.90;;;;;;;;;;5103210;28;20573;-70
2021/06/01 09:33:29;;;;;;;0.93;0.68;;;;;;;;;;5103625;28;20206;-69
2021/06/01 09:35:57;;;;;;;1.38;0.95;;;;;;;;;;5103170;28;20206;-70
2021/06/01 09:38:24;;;;;;;1.05;0.95;;;;;;;;;;5103858;28;20789;-70
2021/06/01 09:41:09;;;;;;;0.60;0.60;;;;;;;;;;5103479;28;20206;-70
2021/06/01 09:43:48;;;;;;;0.55;0.55;;;;;;;;;;5103977;28;20200;-70
2021/06/01 09:46:22;;;;;;;3.63;1.27;;;;;;;;;;5083157;28;20204;-69
2021/06/01 09:48:49;;;;;;;2.03;1.20;;;;;;;;;;5082895;28;20308;-69
2021/06/01 09:51:24;;;;;;;1.10;0.68;;;;;;;;;;5114499;28;20191;-69
2021/06/01 09:53:53;;;;;;;0.70;0.57;;;;;;;;;;5123622;27;20205;-69
2021/06/01 09:56:20;;;;;;;1.13;1.08;;;;;;;;;;5106836;28;20318;-69
2021/06/01 09:58:47;;;;;;;0.80;0.75;;;;;;;;;;5107002;28;20230;-69
2021/06/01 10:01:13;;;;;;;1.45;0.85;;;;;;;;;;5099016;28;20215;-68
2021/06/01 10:03:41;;;;;;;2.85;0.70;;;;;;;;;;5087518;28;20208;-68
2021/06/01 10:06:08;;;;;;;0.88;0.80;;;;;;;;;;5084218;28;20230;-68
2021/06/01 10:08:40;;;;;;;1.52;0.65;;;;;;;;;;5085059;28;20238;-68
2021/06/01 10:11:10;;;;;;;1.05;0.80;;;;;;;;;;5084883;28;20283;-68
2021/06/01 10:13:38;;;;;;;0.98;0.70;;;;;;;;;;5086285;28;20211;-68
2021/06/01 10:16:14;;;;;;;0.80;0.80;;;;;;;;;;5085124;28;20303;-68
2021/06/01 10:18:41;;;;;;;0.88;0.80;;;;;;;;;;5085860;28;20596;-70
2021/06/01 10:21:09;;;;;;;1.45;0.73;;;;;;;;;;5100259;28;20678;-68
2021/06/01 10:23:42;;;;;;;1.05;0.88;;;;;;;;;;5106968;28;20625;-68
2021/06/01 10:26:10;;;;;;;1.95;0.70;;;;;;;;;;5095824;27;20224;-69
2021/06/01 10:28:39;;;;;;;0.75;0.75;;;;;;;;;;5086035;28;20252;-69
2021/06/01 10:31:08;;;;;;;1.05;0.95;;;;;;;;;;5084818;28;20657;-69
2021/06/01 10:33:36;;;;;;;1.38;1.15;;;;;;;;;;5084348;28;20205;-67
2021/06/01 10:52:12;;;;;;;1.63;1.00;;;;;;;;;;5125120;27;20196;-69
2021/06/01 10:54:38;;;;;;;1.38;0.88;;;;;;;;;;5112747;27;20214;-69
2021/06/01 10:57:05;;;;;;;1.20;0.80;;;;;;;;;;5105287;28;20210;-69
2021/06/01 10:59:48;;;;;;;1.10;1.00;;;;;;;;;;5104389;28;20228;-68
2021/06/01 11:02:15;;;;;;;1.05;0.88;;;;;;;;;;5084476;28;20901;-69
2021/06/01 11:05:01;;;;;;;1.17;1.00;;;;;;;;;;5083283;28;20229;-68
2021/06/01 11:07:40;;;;;;;1.88;1.08;;;;;;;;;;5086555;27;20215;-69
2021/06/01 11:10:07;;;;;;;1.35;1.00;;;;;;;;;;5084938;28;20266;-69
2021/06/01 11:12:37;;;;;;;0.95;0.70;;;;;;;;;;5084534;28;20638;-69
2021/06/01 11:15:33;;;;;;;1.67;1.02;;;;;;;;;;5084379;28;20247;-69
2021/06/01 11:18:13;;;;;;;1.10;1.00;;;;;;;;;;5088403;28;20328;-68
2021/06/01 11:20:58;;;;;;;1.35;0.70;;;;;;;;;;5109216;27;20264;-69
2021/06/01 11:23:43;;;;;;;1.83;1.38;;;;;;;;;;5092640;27;20276;-68
2021/06/01 11:32:48;;;;;;;4.22;1.15;;;;;;;;;;5109518;27;20302;-67
2021/06/01 11:34:57;;;;;;;1.27;1.00;;;;;;;;;;5090066;27;20219;-67
2021/06/01 11:37:33;;;;;;;1.25;0.90;;;;;;;;;;5104209;28;20227;-67
2021/06/01 11:43:00;;;;;;;0.93;0.80;;;;;;;;;;5101187;27;21030;-67
2021/06/01 11:45:42;;;;;;;1.70;0.80;;;;;;;;;;5083010;27;20219;-68
2021/06/01 11:50:58;;;;;;;0.80;0.70;;;;;;;;;;5081033;28;20196;-67
2021/06/01 11:53:25;;;;;;;1.25;0.73;;;;;;;;;;5097911;28;20534;-68
2021/06/01 11:56:00;;;;;;;1.48;0.93;;;;;;;;;;5108372;27;20302;-69
2021/06/01 12:04:01;;;;;;;0.80;0.73;;;;;;;;;;5087815;28;20347;-67
2021/06/01 12:12:08;;;;;;;1.05;0.77;;;;;;;;;;5103834;28;20299;-66
2021/06/01 12:17:48;;;;;;;1.20;0.85;;;;;;;;;;5102246;28;20627;-67
2021/06/01 12:20:15;;;;;;;0.88;0.60;;;;;;;;;;5102657;28;20840;-67
2021/06/01 12:22:52;;;;;;;1.88;0.82;;;;;;;;;;5102499;28;20287;-66
2021/06/01 12:25:19;;;;;;;0.98;0.80;;;;;;;;;;5103141;28;20224;-67
2021/06/01 12:27:59;;;;;;;1.00;0.70;;;;;;;;;;5103295;28;20200;-66
2021/06/01 12:33:10;;;;;;;1.40;1.00;;;;;;;;;;5103269;28;20218;-67
2021/06/01 12:36:07;;;;;;;1.65;1.02;;;;;;;;;;5102244;28;20971;-67
2021/06/01 12:44:01;;;;;;;1.02;0.90;;;;;;;;;;5100463;27;20200;-66
2021/06/01 12:46:57;;;;;;;1.02;0.65;;;;;;;;;;5103484;27;20707;-66
2021/06/01 13:23:15;;;;;;;0.82;0.75;;;;;;;;;;5121618;27;20290;-70
2021/06/01 13:36:33;;;;;;;1.02;0.90;;;;;;;;;;5121271;28;20294;-69
2021/06/01 13:39:16;;;;;;;2.42;0.70;;;;;;;;;;5119509;28;20234;-68
2021/06/01 13:47:16;;;;;;;0.85;0.70;;;;;;;;;;5121726;28;20269;-71
2021/06/01 13:50:00;;;;;;;1.40;1.17;;;;;;;;;;5103807;28;20276;-69
2021/06/01 13:52:51;;;;;;;1.42;1.02;;;;;;;;;;5102961;28;20689;-70
2021/06/01 13:55:27;;;;;;;1.77;0.80;;;;;;;;;;5121025;28;20211;-69
2021/06/01 14:20:32;;;;;;;1.42;0.93;;;;;;;;;;5120878;28;20231;-67
2021/06/01 14:31:22;;;;;;;1.88;1.35;;;;;;;;;;5121391;28;20231;-68
2021/06/01 15:23:42;;;;;;;10.32;8.02;;;;;;;;;;5122510;27;20207;-67
2021/06/01 15:48:04;;;;;;;1.60;1.08;;;;;;;;;;5122211;27;20203;-70
2021/06/01 15:50:37;;;;;;;1.33;1.13;;;;;;;;;;5121932;27;20225;-68
2021/06/01 16:23:44;;;;;;;1.73;0.90;;;;;;;;;;5105438;27;20199;-70
2021/06/01 16:31:48;;;;;;;0.88;0.82;;;;;;;;;;5119505;27;20296;-68
2021/06/01 16:42:43;;;;;;;1.20;1.00;;;;;;;;;;5122002;27;20215;-69
2021/06/01 17:04:46;;;;;;;0.90;0.90;;;;;;;;;;5142899;27;20228;-70
2021/06/01 17:12:53;;;;;;;1.08;0.80;;;;;;;;;;5142831;27;20212;-69
2021/06/01 17:15:21;;;;;;;1.08;0.98;;;;;;;;;;5141819;27;20305;-69
2021/06/01 17:17:49;;;;;;;1.25;1.00;;;;;;;;;;5124221;27;20195;-70
2021/06/01 17:23:26;;;;;;;1.17;0.90;;;;;;;;;;5143404;27;20908;-69
2021/06/01 17:30:36;;;;;;;1.60;1.00;;;;;;;;;;5126461;27;20262;-69
2021/06/01 17:34:40;;;;;;;0.88;0.73;;;;;;;;;;5141657;27;20202;-69
2021/06/01 17:37:08;;;;;;;1.20;1.10;;;;;;;;;;5110213;27;20202;-70
2021/06/01 17:39:35;;;;;;;1.45;1.00;;;;;;;;;;5142281;27;20238;-68
2021/06/01 17:42:02;;;;;;;3.33;1.20;;;;;;;;;;5129493;27;20234;-68
2021/06/01 17:44:30;;;;;;;1.27;1.17;;;;;;;;;;5103515;28;20485;-68
2021/06/01 17:47:11;;;;;;;1.55;0.88;;;;;;;;;;5122565;28;20959;-69
2021/06/01 17:49:38;;;;;;;1.95;1.40;;;;;;;;;;5106189;27;20381;-71
2021/06/01 17:52:04;;;;;;;1.17;0.98;;;;;;;;;;5143227;27;20301;-71
2021/06/01 17:54:35;;;;;;;1.67;1.20;;;;;;;;;;5124043;27;20579;-71
2021/06/01 17:57:03;;;;;;;1.02;0.93;;;;;;;;;;5123683;27;20655;-70
2021/06/01 17:59:29;;;;;;;1.52;1.05;;;;;;;;;;5141919;27;20245;-70
2021/06/01 18:01:56;;;;;;;1.20;0.77;;;;;;;;;;5143493;27;20237;-71
2021/06/01 18:04:25;;;;;;;3.60;1.65;;;;;;;;;;5141663;27;20198;-69
2021/06/01 18:07:02;;;;;;;1.60;1.02;;;;;;;;;;5141612;27;20305;-69
2021/06/01 19:26:15;;;;;;;1.65;1.50;;;;;;;;;;5122726;27;20198;-70
2021/06/01 19:29:12;;;;;;;3.67;1.90;;;;;;;;;;5105460;27;20306;-68
2021/06/01 19:51:08;;;;;;;2.35;1.08;;;;;;;;;;5139410;27;20194;-67
2021/06/01 19:53:37;;;;;;;2.47;1.50;;;;;;;;;;5144047;27;20882;-67
2021/06/01 19:56:07;;;;;;;3.08;1.90;;;;;;;;;;5143731;27;20199;-69
2021/06/01 19:58:34;;;;;;;1.88;1.30;;;;;;;;;;5143939;27;20230;-69
2021/06/01 20:01:04;;;;;;;1.33;1.23;;;;;;;;;;5144312;27;20313;-67
2021/06/01 20:03:33;;;;;;;2.92;1.67;;;;;;;;;;5141561;27;20233;-67
2021/06/01 20:06:03;;;;;;;2.25;1.40;;;;;;;;;;5121919;27;20639;-68
2021/06/01 20:08:30;;;;;;;1.20;1.08;;;;;;;;;;5105509;27;20366;-67
2021/06/01 20:10:56;;;;;;;1.98;0.98;;;;;;;;;;5104327;27;20207;-67
2021/06/01 20:13:23;;;;;;;2.67;1.63;;;;;;;;;;5088798;27;20210;-67
2021/06/01 20:15:50;;;;;;;1.90;1.40;;;;;;;;;;5124187;27;20855;-69
2021/06/01 20:18:20;;;;;;;2.65;1.50;;;;;;;;;;5125259;27;20642;-68
2021/06/01 20:20:48;;;;;;;2.93;1.60;;;;;;;;;;5124948;27;20336;-69
2021/06/01 20:23:18;;;;;;;26.73;2.70;;;;;;;;;;5107251;27;20222;-70
2021/06/01 20:25:46;;;;;;;5.53;1.58;;;;;;;;;;5132188;27;20372;-67
2021/06/01 20:28:19;;;;;;;4.53;1.73;;;;;;;;;;5145795;27;20253;-69
2021/06/01 20:30:47;;;;;;;2.50;1.63;;;;;;;;;;5145734;27;20262;-68
2021/06/01 20:33:16;;;;;;;2.47;1.38;;;;;;;;;;5146258;27;20274;-67
2021/06/01 20:35:46;;;;;;;1.90;1.52;;;;;;;;;;5144877;27;20199;-67
2021/06/01 20:38:13;;;;;;;4.20;1.50;;;;;;;;;;5144866;27;20543;-69
2021/06/01 20:40:39;;;;;;;3.60;1.70;;;;;;;;;;5144707;27;20206;-68
2021/06/01 20:43:06;;;;;;;8.43;1.70;;;;;;;;;;5139134;27;20265;-67
2021/06/01 20:45:34;;;;;;;2.80;1.30;;;;;;;;;;5109998;27;20215;-69
2021/06/01 20:48:05;;;;;;;1.93;1.20;;;;;;;;;;5125758;27;20338;-68
2021/06/01 20:50:32;;;;;;;2.13;1.27;;;;;;;;;;5134668;27;20276;-68
2021/06/01 20:52:59;;;;;;;1.33;0.93;;;;;;;;;;5126668;27;20212;-69
2021/06/01 20:55:26;;;;;;;1.97;1.20;;;;;;;;;;5145847;27;20234;-70
2021/06/01 20:57:52;;;;;;;2.23;1.60;;;;;;;;;;5128128;27;20282;-68
2021/06/01 21:00:19;;;;;;;2.03;1.20;;;;;;;;;;5112435;27;20305;-67
2021/06/01 21:02:46;;;;;;;2.03;1.30;;;;;;;;;;5126217;27;20237;-69
2021/06/01 21:05:13;;;;;;;2.50;1.63;;;;;;;;;;5125241;27;20913;-67
2021/06/01 21:07:41;;;;;;;2.33;1.60;;;;;;;;;;5125401;27;20584;-68
2021/06/01 21:10:09;;;;;;;2.07;1.30;;;;;;;;;;5126058;27;20309;-68
2021/06/01 21:12:35;;;;;;;1.30;1.10;;;;;;;;;;5124968;27;20302;-67
2021/06/01 21:15:03;;;;;;;2.50;1.50;;;;;;;;;;5125338;27;20199;-66
2021/06/01 21:17:30;;;;;;;1.90;1.42;;;;;;;;;;5126944;27;20590;-67
2021/06/01 21:19:57;;;;;;;1.83;1.10;;;;;;;;;;5107474;27;20223;-67
2021/06/01 21:22:24;;;;;;;1.77;1.50;;;;;;;;;;5125748;27;20297;-69
2021/06/01 21:24:50;;;;;;;2.17;1.30;;;;;;;;;;5125750;27;20211;-69
2021/06/01 21:27:17;;;;;;;1.80;1.37;;;;;;;;;;5125856;27;20223;-69
2021/06/01 21:29:44;;;;;;;1.67;1.23;;;;;;;;;;5122290;27;20298;-66
2021/06/01 21:32:15;;;;;;;3.37;1.90;;;;;;;;;;5126035;27;20203;-66
2021/06/01 21:34:44;;;;;;;2.10;1.30;;;;;;;;;;5106549;28;20211;-68
2021/06/01 21:37:11;;;;;;;2.90;1.63;;;;;;;;;;5124752;27;20290;-68
2021/06/01 21:39:39;;;;;;;1.77;1.30;;;;;;;;;;5125940;28;20393;-68
2021/06/01 21:42:06;;;;;;;1.57;1.30;;;;;;;;;;5125431;28;20213;-68
2021/06/01 21:44:37;;;;;;;1.50;1.10;;;;;;;;;;5124841;28;20299;-67
2021/06/01 21:47:05;;;;;;;1.80;1.13;;;;;;;;;;5125967;28;20617;-66
2021/06/01 21:49:33;;;;;;;2.30;1.57;;;;;;;;;;5128758;27;20443;-67
2021/06/01 21:52:00;;;;;;;2.33;1.43;;;;;;;;;;5131977;27;20205;-66
2021/06/01 21:54:26;;;;;;;1.30;1.20;;;;;;;;;;5132346;27;20206;-66
2021/06/01 21:56:53;;;;;;;1.53;1.13;;;;;;;;;;5151603;27;20241;-68
2021/06/01 21:59:20;;;;;;;2.13;1.50;;;;;;;;;;5131939;27;20608;-68